createdAt,value
2018-04-21T00:00:05.333Z,59.4
2018-04-21T00:15:04.544Z,58.6
2018-04-21T00:30:04.959Z,58.7
2018-04-21T00:45:04.786Z,59.8
2018-04-21T01:00:04.542Z,59.9
2018-04-21T01:15:04.623Z,59.3
2018-04-21T01:30:04.715Z,60.7
2018-04-21T01:45:05.408Z,60.3
2018-04-21T02:00:04.981Z,60.6
2018-04-21T02:15:04.672Z,61.3
2018-04-21T02:30:04.459Z,62.1
2018-04-21T02:45:05.214Z,61.8
2018-04-21T03:00:04.791Z,61.6
2018-04-21T03:15:05.069Z,61.9
2018-04-21T03:30:05.166Z,62
2018-04-21T03:45:05.244Z,61.6
2018-04-21T04:00:04.692Z,62.7
2018-04-21T04:15:05.444Z,63.2
2018-04-21T04:30:04.591Z,64.2
2018-04-21T04:45:04.706Z,63.6
2018-04-21T05:00:05.249Z,64.1
2018-04-21T05:15:05.522Z,64.6
2018-04-21T05:30:05.311Z,63
2018-04-21T05:45:05.423Z,63.2
2018-04-21T06:00:04.428Z,61.6
2018-04-21T06:15:05.101Z,61.1
2018-04-21T06:30:04.885Z,60.6
2018-04-21T06:45:04.966Z,60.4
2018-04-21T07:00:04.775Z,59.3
2018-04-21T07:15:05.514Z,58.6
2018-04-21T07:30:05.588Z,56.1
2018-04-21T07:45:05.184Z,54.9
2018-04-21T08:00:05.184Z,54.5
2018-04-21T08:15:04.952Z,49.8
2018-04-21T08:30:05.180Z,45.7
2018-04-21T08:45:05.441Z,44.1
2018-04-21T09:00:05.245Z,45.3
2018-04-21T09:15:05.051Z,42.7
2018-04-21T09:30:04.815Z,40.4
2018-04-21T09:45:05.585Z,41.1
2018-04-21T10:00:05.662Z,40.9
2018-04-21T10:15:04.697Z,42.7
2018-04-21T10:30:05.027Z,43.5
2018-04-21T10:45:05.318Z,44.8
2018-04-21T11:00:05.164Z,43.9
2018-04-21T11:15:04.646Z,45.2
2018-04-21T11:30:04.430Z,44.1
2018-04-21T11:45:04.873Z,44.1
2018-04-21T12:00:04.351Z,44.8
2018-04-21T12:15:04.962Z,44.8
2018-04-21T12:30:04.773Z,44
2018-04-21T12:45:04.777Z,42.1
2018-04-21T13:00:04.813Z,40.4
2018-04-21T13:15:04.415Z,40.2
2018-04-21T13:30:04.714Z,38.8
2018-04-21T13:45:05.184Z,39.7
2018-04-21T14:00:05.182Z,39.2
2018-04-21T14:15:04.647Z,38.8
2018-04-21T14:30:04.340Z,38
2018-04-21T14:45:04.941Z,37.9
2018-04-21T15:00:06.093Z,37
2018-04-21T15:15:04.646Z,37.8
2018-04-21T15:30:04.413Z,36.7
2018-04-21T15:45:04.538Z,37
2018-04-21T16:00:04.629Z,35.8
2018-04-21T16:15:05.214Z,35.9
2018-04-21T16:30:04.955Z,36.5
2018-04-21T16:45:05.093Z,37.2
2018-04-21T17:00:04.831Z,37.5
2018-04-21T17:15:04.387Z,37.8
2018-04-21T17:30:05.215Z,38.1
2018-04-21T17:45:04.735Z,39.1
2018-04-21T18:00:04.693Z,39.6
2018-04-21T18:15:04.999Z,39.9
2018-04-21T18:30:05.228Z,40.4
2018-04-21T18:45:04.660Z,41.3
2018-04-21T19:00:05.261Z,42
2018-04-21T19:15:04.898Z,43.1
2018-04-21T19:30:04.588Z,43.7
2018-04-21T19:45:05.176Z,44.8
2018-04-21T20:00:04.615Z,45.9
2018-04-21T20:15:05.063Z,45.9
2018-04-21T20:30:04.866Z,45.2
2018-04-21T20:45:04.377Z,46
2018-04-21T21:00:04.879Z,47.3
2018-04-21T21:15:04.382Z,47.2
2018-04-21T21:30:05.064Z,48.6
2018-04-21T21:45:05.024Z,50.7
2018-04-21T22:00:04.537Z,50.5
2018-04-21T22:15:04.983Z,51.3
2018-04-21T22:30:05.178Z,53.2
2018-04-21T22:45:05.160Z,53.8
2018-04-21T23:00:04.714Z,53.7
2018-04-21T23:15:05.128Z,54
2018-04-21T23:30:04.784Z,55.6
2018-04-21T23:45:05.239Z,55.8
